Time;durP1;ratioP1;P1;durP2;ratioP2;P2;SDS_P1;SDS_P2;PMS_P1;PMS_P2;Temp;Humidity;BMP_temperature;BMP_pressure;BME280_temperature;BME280_humidity;BME280_pressure;Samples;Min_cycle;Max_cycle;Signal;HPM_P1;HPM_P2
2023/12/03 00:00:08;;;;;;;27.95;12.95;;;;;;;0.39;89.46;101428.88;5034818;28;20041;-66
2023/12/03 00:02:36;;;;;;;28.25;14.02;;;;;;;0.41;89.51;101428.97;5055118;28;20559;-66
2023/12/03 00:05:02;;;;;;;23.60;13.30;;;;;;;0.41;89.05;101424.72;5027088;28;20041;-66
2023/12/03 00:07:29;;;;;;;24.02;12.88;;;;;;;0.42;89.16;101431.56;5025821;28;20045;-66
2023/12/03 00:09:56;;;;;;;24.05;12.43;;;;;;;0.44;89.67;101432.47;5029907;28;20148;-66
2023/12/03 00:12:21;;;;;;;25.55;13.02;;;;;;;0.44;89.69;101424.00;5040883;28;20491;-66
2023/12/03 00:14:47;;;;;;;27.23;12.57;;;;;;;0.43;89.65;101424.78;5053803;28;20054;-66
2023/12/03 00:17:12;;;;;;;25.13;13.88;;;;;;;0.45;89.45;101430.81;5023473;28;20091;-66
2023/12/03 00:19:38;;;;;;;25.55;12.80;;;;;;;0.46;89.56;101419.84;5054589;28;20025;-66
2023/12/03 00:22:04;;;;;;;23.75;11.68;;;;;;;0.47;89.94;101431.75;5040560;28;20068;-66
2023/12/03 00:24:30;;;;;;;21.35;11.50;;;;;;;0.48;89.57;101419.09;5025887;28;20042;-66
2023/12/03 00:26:56;;;;;;;23.92;14.57;;;;;;;0.48;89.76;101424.19;5024868;28;20041;-66
2023/12/03 00:29:21;;;;;;;24.05;12.40;;;;;;;0.49;89.66;101422.50;5024459;28;20537;-66
2023/12/03 00:31:47;;;;;;;25.73;12.80;;;;;;;0.49;89.33;101422.50;5053993;28;20087;-67
2023/12/03 00:34:12;;;;;;;24.40;13.45;;;;;;;0.50;89.77;101424.25;5023473;28;20027;-67
2023/12/03 00:36:38;;;;;;;24.50;12.70;;;;;;;0.52;90.05;101440.44;5054032;28;20041;-66
2023/12/03 00:39:03;;;;;;;27.27;13.50;;;;;;;0.52;90.49;101440.44;5008231;28;20597;-66
2023/12/03 00:41:29;;;;;;;23.20;12.27;;;;;;;0.52;90.07;101431.16;5025893;28;20033;-68
2023/12/03 00:43:54;;;;;;;25.63;12.52;;;;;;;0.51;90.50;101441.25;5020610;28;20029;-66
2023/12/03 00:46:22;;;;;;;23.70;12.88;;;;;;;0.48;90.92;101436.03;5040706;28;20036;-66
2023/12/03 00:48:48;;;;;;;24.92;13.40;;;;;;;0.45;90.53;101431.69;5040425;28;20535;-66
2023/12/03 00:51:14;;;;;;;24.02;12.00;;;;;;;0.43;90.71;101440.06;5056773;28;20038;-66
2023/12/03 00:53:41;;;;;;;23.98;12.73;;;;;;;0.41;90.89;101451.84;5042368;28;20045;-66
2023/12/03 00:56:08;;;;;;;21.83;11.45;;;;;;;0.37;91.27;101452.50;5023399;28;20098;-66
2023/12/03 00:58:33;;;;;;;28.15;13.65;;;;;;;0.34;91.20;101460.00;5023040;28;20033;-66
2023/12/03 01:00:59;;;;;;;28.45;15.60;;;;;;;0.30;91.04;101458.13;5023500;28;20041;-66
2023/12/03 01:03:24;;;;;;;23.73;12.48;;;;;;;0.27;91.50;101465.59;5057857;28;20030;-66
2023/12/03 01:05:50;;;;;;;25.58;12.48;;;;;;;0.24;91.74;101461.25;5051827;28;20120;-66
2023/12/03 01:08:15;;;;;;;27.60;13.65;;;;;;;0.20;91.78;101461.94;5019315;28;20057;-66
2023/12/03 01:10:41;;;;;;;23.08;12.93;;;;;;;0.18;91.79;101464.41;5022893;28;20111;-66
2023/12/03 01:13:06;;;;;;;27.08;12.57;;;;;;;0.15;91.81;101463.41;5020524;28;20034;-66
2023/12/03 01:15:32;;;;;;;24.63;12.07;;;;;;;0.12;91.86;101475.97;5025531;28;20189;-66
2023/12/03 01:17:57;;;;;;;24.48;13.75;;;;;;;0.08;92.48;101469.88;5039535;28;20120;-66
2023/12/03 01:20:23;;;;;;;27.10;13.10;;;;;;;0.04;92.59;101483.28;5021112;28;20083;-66
2023/12/03 01:22:49;;;;;;;22.95;12.75;;;;;;;0.02;93.45;101486.53;5022620;28;20029;-66
2023/12/03 01:25:14;;;;;;;26.65;12.63;;;;;;;-0.01;93.85;101488.94;5024033;28;20428;-66
2023/12/03 01:27:40;;;;;;;24.77;12.73;;;;;;;-0.02;93.75;101493.16;5041429;28;20412;-66
2023/12/03 01:30:06;;;;;;;23.45;12.20;;;;;;;-0.04;93.94;101492.22;5038247;28;20497;-66
2023/12/03 01:32:31;;;;;;;25.67;13.73;;;;;;;-0.02;94.12;101494.81;5021126;28;20112;-66
2023/12/03 01:34:57;;;;;;;23.02;12.55;;;;;;;-0.03;94.02;101493.94;5040080;28;20477;-66
2023/12/03 01:37:22;;;;;;;23.90;12.63;;;;;;;-0.01;94.09;101496.56;5024106;28;20485;-66
2023/12/03 01:39:47;;;;;;;25.70;14.00;;;;;;;-0.02;93.84;101493.16;5039132;28;20041;-66
2023/12/03 01:42:13;;;;;;;26.00;12.65;;;;;;;0.01;93.26;101487.34;5038303;28;20574;-66
2023/12/03 01:44:38;;;;;;;24.58;12.90;;;;;;;0.01;93.08;101484.78;5041779;28;20049;-66
2023/12/03 01:47:04;;;;;;;24.20;11.95;;;;;;;-0.00;93.47;101493.22;5022773;28;20038;-66
2023/12/03 01:49:31;;;;;;;24.85;12.13;;;;;;;0.01;93.02;101493.28;5058179;28;20033;-66
2023/12/03 01:51:57;;;;;;;24.30;12.60;;;;;;;0.07;93.17;101492.69;5024305;28;20046;-66
2023/12/03 01:54:27;;;;;;;23.73;12.60;;;;;;;0.16;92.93;101493.97;5028668;28;20033;-66
2023/12/03 01:56:53;;;;;;;31.10;14.55;;;;;;;0.18;91.99;101484.75;5037696;28;20037;-66
2023/12/03 01:59:19;;;;;;;28.63;14.25;;;;;;;0.23;91.63;101481.56;5028550;28;20056;-66
2023/12/03 02:01:44;;;;;;;24.25;12.18;;;;;;;0.27;91.87;101484.28;5042081;28;20040;-66
2023/12/03 02:04:10;;;;;;;30.50;13.70;;;;;;;0.29;91.48;101485.22;5010304;28;20499;-66
2023/12/03 02:06:35;;;;;;;27.02;13.45;;;;;;;0.30;91.92;101493.72;5018948;28;20041;-66
2023/12/03 02:09:01;;;;;;;29.17;13.50;;;;;;;0.28;91.61;101488.56;5019660;28;20477;-66
2023/12/03 02:11:27;;;;;;;26.75;12.02;;;;;;;0.25;91.09;101482.47;5037085;28;20553;-66
2023/12/03 02:13:53;;;;;;;24.70;12.15;;;;;;;0.24;91.52;101491.78;5055730;28;20045;-66
2023/12/03 02:16:18;;;;;;;26.65;13.43;;;;;;;0.24;91.05;101488.34;5021031;28;20523;-66
2023/12/03 02:18:43;;;;;;;27.67;13.05;;;;;;;0.25;91.18;101487.56;5023608;28;20083;-66
2023/12/03 02:21:09;;;;;;;26.70;13.20;;;;;;;0.24;91.62;101490.91;5018563;28;20044;-66
2023/12/03 02:23:35;;;;;;;25.52;12.52;;;;;;;0.24;91.27;101489.22;5020883;28;20030;-66
2023/12/03 02:26:00;;;;;;;21.83;11.18;;;;;;;0.25;91.29;101490.09;5021050;28;20099;-66
2023/12/03 02:28:26;;;;;;;21.58;11.73;;;;;;;0.23;91.75;101490.06;5022583;28;20029;-66
2023/12/03 02:30:51;;;;;;;24.45;12.65;;;;;;;0.19;91.38;101493.25;5051634;28;20565;-66
2023/12/03 02:33:17;;;;;;;23.75;12.55;;;;;;;0.16;91.56;101488.91;5037764;28;20030;-66
2023/12/03 02:35:43;;;;;;;23.38;12.95;;;;;;;0.14;91.04;101492.19;5016846;28;20068;-66
2023/12/03 02:38:08;;;;;;;25.60;12.70;;;;;;;0.08;91.09;101490.22;5037190;28;20029;-65
2023/12/03 02:40:37;;;;;;;23.77;12.20;;;;;;;0.00;91.70;101506.78;5057663;28;20038;-66
2023/12/03 02:43:03;;;;;;;22.83;12.05;;;;;;;-0.10;92.02;101511.41;5038347;28;20112;-66
2023/12/03 02:45:28;;;;;;;22.05;11.25;;;;;;;-0.17;92.14;101507.69;5035940;28;20049;-66
2023/12/03 02:47:54;;;;;;;25.05;12.45;;;;;;;-0.22;92.27;101508.28;5021013;28;20671;-67
2023/12/03 02:50:19;;;;;;;20.52;10.75;;;;;;;-0.30;93.24;101523.16;5022764;28;20029;-66
2023/12/03 02:52:45;;;;;;;19.33;11.25;;;;;;;-0.36;93.53;101520.31;5016966;28;20030;-66
2023/12/03 02:55:10;;;;;;;21.92;11.48;;;;;;;-0.44;93.90;101517.44;5037724;28;20116;-66
2023/12/03 02:57:36;;;;;;;21.85;11.77;;;;;;;-0.48;93.91;101529.88;5020598;28;20041;-66
2023/12/03 03:00:04;;;;;;;22.90;12.45;;;;;;;-0.51;94.53;101532.31;5021673;28;20492;-66
2023/12/03 03:02:29;;;;;;;21.63;11.35;;;;;;;-0.57;95.20;101534.56;5021731;28;20115;-66
2023/12/03 03:04:55;;;;;;;23.30;10.85;;;;;;;-0.59;95.07;101538.66;5019995;28;20067;-66
2023/12/03 03:07:20;;;;;;;22.52;11.63;;;;;;;-0.57;95.52;101537.94;5022300;28;20037;-66
2023/12/03 03:09:46;;;;;;;22.02;11.30;;;;;;;-0.57;95.38;101524.41;5023030;28;20044;-66
2023/12/03 03:12:11;;;;;;;24.63;11.90;;;;;;;-0.60;95.54;101525.09;5007249;28;20049;-66
2023/12/03 03:14:36;;;;;;;28.83;11.90;;;;;;;-0.59;96.07;101526.84;5041740;28;20132;-66
2023/12/03 03:17:02;;;;;;;24.83;11.75;;;;;;;-0.61;95.84;101528.47;5018157;28;20090;-66
2023/12/03 03:19:28;;;;;;;22.20;11.05;;;;;;;-0.62;95.77;101524.16;5028537;28;20032;-66
2023/12/03 03:21:53;;;;;;;22.42;10.90;;;;;;;-0.64;95.64;101532.50;5043251;28;20044;-66
2023/12/03 03:24:18;;;;;;;20.38;11.35;;;;;;;-0.69;95.97;101539.03;5029221;28;20172;-66
2023/12/03 03:26:44;;;;;;;21.40;10.38;;;;;;;-0.71;95.90;101528.78;5009962;28;20041;-66
2023/12/03 03:29:09;;;;;;;22.95;12.15;;;;;;;-0.72;96.34;101528.75;5041993;28;20033;-66
2023/12/03 03:31:35;;;;;;;26.80;13.73;;;;;;;-0.72;96.26;101528.75;4991673;28;20409;-66
2023/12/03 03:34:00;;;;;;;23.50;11.55;;;;;;;-0.72;95.79;101534.66;5040569;28;20042;-66
2023/12/03 03:36:26;;;;;;;19.73;10.75;;;;;;;-0.71;96.21;101540.63;5024350;28;20041;-66
2023/12/03 03:38:51;;;;;;;24.38;11.95;;;;;;;-0.71;95.80;101545.69;5038237;28;20041;-66
2023/12/03 03:41:16;;;;;;;21.55;11.07;;;;;;;-0.65;96.36;101557.03;5024592;28;20706;-66
2023/12/03 03:43:42;;;;;;;24.13;12.02;;;;;;;-0.62;95.95;101552.09;5008122;28;20568;-66
2023/12/03 03:46:10;;;;;;;21.48;11.68;;;;;;;-0.57;95.25;101548.09;5024454;28;20495;-65
2023/12/03 03:48:35;;;;;;;22.58;10.48;;;;;;;-0.55;95.06;101546.53;5024594;28;20127;-66
2023/12/03 03:51:01;;;;;;;24.45;11.80;;;;;;;-0.52;94.73;101544.13;5037298;28;20642;-66
2023/12/03 03:53:27;;;;;;;24.90;11.27;;;;;;;-0.50;94.85;101546.72;5028062;28;20041;-66
2023/12/03 03:55:52;;;;;;;20.30;10.85;;;;;;;-0.48;95.06;101551.09;5009503;28;20103;-66
2023/12/03 03:58:18;;;;;;;19.90;10.50;;;;;;;-0.47;94.34;101552.84;5022573;28;20113;-66
2023/12/03 04:00:43;;;;;;;19.27;10.70;;;;;;;-0.46;94.25;101553.72;5008550;28;20512;-67
2023/12/03 04:03:08;;;;;;;22.92;10.85;;;;;;;-0.47;94.57;101557.91;4991015;28;20466;-66
2023/12/03 04:05:34;;;;;;;21.23;10.57;;;;;;;-0.49;94.11;101556.09;5006854;28;20038;-66
2023/12/03 04:07:59;;;;;;;20.60;9.98;;;;;;;-0.50;94.36;101565.38;5020513;28;20038;-66
2023/12/03 04:10:25;;;;;;;23.25;11.20;;;;;;;-0.53;94.48;101566.91;5024605;28;20124;-66
2023/12/03 04:12:50;;;;;;;20.63;11.15;;;;;;;-0.52;94.86;101571.19;5036542;28;20133;-66
2023/12/03 04:15:17;;;;;;;22.05;11.00;;;;;;;-0.54;94.36;101558.41;5024796;28;20318;-66
2023/12/03 04:17:43;;;;;;;16.27;9.63;;;;;;;-0.49;94.28;101561.19;5060280;28;20567;-67
2023/12/03 04:20:10;;;;;;;19.17;9.68;;;;;;;-0.45;94.28;101568.13;5018997;28;20033;-66
2023/12/03 04:22:35;;;;;;;26.30;13.75;;;;;;;-0.42;93.85;101561.53;5021496;28;20488;-66
2023/12/03 04:25:01;;;;;;;22.73;10.90;;;;;;;-0.41;93.13;101552.25;5009445;28;20048;-66
2023/12/03 04:27:26;;;;;;;22.92;11.55;;;;;;;-0.36;92.86;101549.94;5006449;28;20129;-66
2023/12/03 04:29:51;;;;;;;21.85;11.15;;;;;;;-0.32;92.35;101555.22;5024983;28;20056;-66
2023/12/03 04:32:17;;;;;;;20.58;10.43;;;;;;;-0.28;92.57;101554.59;5054542;28;20042;-66
2023/12/03 04:34:43;;;;;;;24.83;10.68;;;;;;;-0.25;91.69;101538.63;5039008;28;20112;-66
2023/12/03 04:37:08;;;;;;;22.15;12.10;;;;;;;-0.21;90.59;101527.78;5019086;28;20117;-66
2023/12/03 04:39:35;;;;;;;21.70;10.55;;;;;;;-0.19;90.28;101522.00;5021432;28;20044;-66
2023/12/03 04:42:00;;;;;;;20.35;10.40;;;;;;;-0.15;90.45;101531.50;5052399;28;20037;-67
2023/12/03 04:44:26;;;;;;;19.88;9.63;;;;;;;-0.16;90.28;101518.72;5052985;28;20789;-66
2023/12/03 04:46:51;;;;;;;21.17;10.63;;;;;;;-0.14;89.96;101518.00;5038071;28;20048;-66
2023/12/03 04:49:17;;;;;;;18.70;10.00;;;;;;;-0.11;90.21;101525.75;5036393;28;20036;-66
2023/12/03 04:51:42;;;;;;;20.05;10.20;;;;;;;-0.12;89.61;101518.94;4993403;28;20034;-66
2023/12/03 04:54:08;;;;;;;23.77;11.20;;;;;;;-0.08;89.68;101532.66;5028803;28;20500;-66
2023/12/03 04:56:33;;;;;;;17.05;9.98;;;;;;;-0.08;89.36;101523.38;5023709;28;20037;-66
2023/12/03 04:58:59;;;;;;;22.20;9.85;;;;;;;-0.06;89.65;101531.91;5040109;28;20026;-66
2023/12/03 05:01:24;;;;;;;20.30;10.57;;;;;;;-0.05;89.55;101532.78;5038983;28;20165;-66
2023/12/03 05:03:49;;;;;;;20.42;10.15;;;;;;;-0.05;89.24;101538.75;5022096;28;20064;-66
2023/12/03 05:06:15;;;;;;;18.88;9.77;;;;;;;-0.03;89.49;101531.19;5017352;28;20056;-66
2023/12/03 05:08:41;;;;;;;18.02;10.00;;;;;;;-0.04;89.51;101525.25;5036265;28;20065;-66
2023/12/03 05:11:07;;;;;;;18.02;8.73;;;;;;;-0.04;88.92;101526.91;5038896;28;20041;-66
2023/12/03 05:13:33;;;;;;;21.70;10.50;;;;;;;-0.08;88.68;101515.75;5006526;28;20029;-66
2023/12/03 05:16:00;;;;;;;18.33;9.73;;;;;;;-0.09;89.09;101520.75;5021423;28;20116;-67
2023/12/03 05:18:26;;;;;;;22.40;10.40;;;;;;;-0.12;88.83;101526.56;5054450;28;20059;-66
2023/12/03 05:20:51;;;;;;;21.45;9.30;;;;;;;-0.09;89.17;101531.78;5051945;28;20034;-66
2023/12/03 05:23:17;;;;;;;21.40;10.02;;;;;;;-0.11;88.87;101530.84;5038661;28;20040;-66
2023/12/03 05:25:42;;;;;;;20.33;9.18;;;;;;;-0.11;88.63;101520.69;5022789;28;20037;-67
2023/12/03 05:28:08;;;;;;;18.95;9.15;;;;;;;-0.13;88.08;101527.38;5057422;28;20487;-65
2023/12/03 05:30:33;;;;;;;22.05;10.52;;;;;;;-0.19;88.52;101522.00;5021878;28;20543;-68
2023/12/03 05:32:59;;;;;;;19.20;9.52;;;;;;;-0.20;88.59;101537.16;5043579;28;20041;-66
2023/12/03 05:35:24;;;;;;;22.90;10.98;;;;;;;-0.24;88.67;101546.31;5028555;28;20524;-65
2023/12/03 05:37:50;;;;;;;20.02;9.75;;;;;;;-0.28;88.99;101549.50;5023751;28;20053;-66
2023/12/03 05:40:15;;;;;;;20.17;11.00;;;;;;;-0.30;89.85;101560.41;5027089;28;20078;-66
2023/12/03 05:42:41;;;;;;;18.25;9.52;;;;;;;-0.33;89.85;101558.56;5007155;28;20091;-66
2023/12/03 05:45:07;;;;;;;22.52;10.50;;;;;;;-0.36;89.70;101560.13;5037817;28;20037;-66
2023/12/03 05:47:34;;;;;;;18.60;9.73;;;;;;;-0.35;88.74;101560.16;5022658;28;20111;-66
2023/12/03 05:50:01;;;;;;;21.08;10.07;;;;;;;-0.35;89.40;101570.31;5036675;28;20044;-66
2023/12/03 05:52:26;;;;;;;19.20;9.15;;;;;;;-0.38;89.79;101573.59;5023800;28;20080;-66
2023/12/03 05:54:52;;;;;;;21.63;10.18;;;;;;;-0.41;89.87;101570.91;5022575;28;20045;-66
2023/12/03 05:57:17;;;;;;;20.13;9.98;;;;;;;-0.40;89.98;101576.88;5036415;28;20050;-65
2023/12/03 05:59:43;;;;;;;18.98;9.40;;;;;;;-0.43;89.94;101574.19;5025359;28;20512;-66
2023/12/03 06:02:09;;;;;;;21.73;10.00;;;;;;;-0.43;89.45;101566.56;5033598;28;20041;-66
2023/12/03 06:04:34;;;;;;;23.65;10.70;;;;;;;-0.46;89.88;101567.28;5019457;28;20041;-66
2023/12/03 06:07:01;;;;;;;20.55;10.48;;;;;;;-0.47;90.02;101573.16;5039050;28;20041;-67
2023/12/03 06:09:26;;;;;;;22.08;10.88;;;;;;;-0.46;90.62;101590.13;5038395;28;20706;-66
2023/12/03 06:11:52;;;;;;;22.33;10.85;;;;;;;-0.51;90.46;101586.47;5016468;28;20049;-66
2023/12/03 06:14:17;;;;;;;18.33;9.43;;;;;;;-0.52;90.53;101589.84;5019288;28;20092;-66
2023/12/03 06:16:43;;;;;;;22.42;9.68;;;;;;;-0.54;90.60;101595.66;5004977;28;20080;-66
2023/12/03 06:19:08;;;;;;;18.33;9.35;;;;;;;-0.56;91.01;101597.22;5010730;28;20056;-66
2023/12/03 06:21:34;;;;;;;20.95;10.40;;;;;;;-0.56;91.54;101609.91;5010108;28;20037;-66
2023/12/03 06:23:59;;;;;;;22.58;10.88;;;;;;;-0.56;91.27;101605.72;5025514;28;20056;-66
2023/12/03 06:26:25;;;;;;;24.88;10.90;;;;;;;-0.55;91.50;101604.91;5007700;28;20116;-66
2023/12/03 06:28:50;;;;;;;22.75;11.40;;;;;;;-0.52;92.18;101617.78;5022818;28;20113;-66
2023/12/03 06:31:15;;;;;;;25.65;11.20;;;;;;;-0.49;92.97;101633.16;5021607;28;20025;-66
2023/12/03 06:33:41;;;;;;;21.33;10.45;;;;;;;-0.44;92.43;101623.22;5052452;28;20087;-66
2023/12/03 06:36:07;;;;;;;22.85;11.15;;;;;;;-0.38;92.07;101618.44;5003634;28;20045;-67
2023/12/03 06:38:32;;;;;;;23.98;10.52;;;;;;;-0.33;91.73;101616.97;5036461;28;20095;-66
2023/12/03 06:40:58;;;;;;;26.77;11.15;;;;;;;-0.30;91.44;101613.75;5025403;28;20171;-66
2023/12/03 06:43:24;;;;;;;26.25;12.25;;;;;;;-0.24;91.76;101621.63;5021995;28;20029;-67
2023/12/03 06:45:49;;;;;;;26.20;12.07;;;;;;;-0.19;91.80;101633.78;5021011;28;20050;-66
2023/12/03 06:48:15;;;;;;;22.27;11.05;;;;;;;-0.18;91.36;101615.19;5022774;28;20034;-66
2023/12/03 06:50:40;;;;;;;25.23;11.60;;;;;;;-0.16;91.08;101615.28;5025011;28;20037;-66
2023/12/03 06:53:06;;;;;;;22.65;10.77;;;;;;;-0.14;91.20;101614.53;5027691;28;20049;-66
2023/12/03 06:55:31;;;;;;;25.60;11.07;;;;;;;-0.11;90.95;101618.91;5038570;28;20030;-67
2023/12/03 06:57:58;;;;;;;24.58;11.23;;;;;;;-0.11;91.90;101631.59;5027816;28;20041;-66
2023/12/03 07:00:24;;;;;;;23.83;11.73;;;;;;;-0.14;90.88;101616.22;5011028;28;20382;-66
2023/12/03 07:02:50;;;;;;;24.45;11.07;;;;;;;-0.14;91.29;101627.25;5054154;28;20044;-66
2023/12/03 07:05:16;;;;;;;22.92;10.82;;;;;;;-0.14;90.75;101624.69;5037396;28;20041;-66
2023/12/03 07:07:41;;;;;;;23.42;10.95;;;;;;;-0.13;91.00;101629.00;5044611;28;20033;-66
2023/12/03 07:10:07;;;;;;;24.20;12.27;;;;;;;-0.14;91.00;101629.78;5027052;28;20033;-66
2023/12/03 07:12:33;;;;;;;26.92;11.38;;;;;;;-0.13;91.84;101651.00;5060795;28;20034;-66
2023/12/03 07:14:58;;;;;;;25.42;12.07;;;;;;;-0.12;91.81;101653.59;5025349;28;20552;-66
2023/12/03 07:17:23;;;;;;;25.90;12.70;;;;;;;-0.05;91.83;101654.75;5041874;28;20509;-66
2023/12/03 07:19:49;;;;;;;26.75;11.98;;;;;;;-0.05;91.05;101645.47;5026531;28;20120;-67
2023/12/03 07:22:15;;;;;;;27.67;13.82;;;;;;;-0.01;90.95;101655.00;5058619;28;20057;-66
2023/12/03 07:24:41;;;;;;;25.77;12.85;;;;;;;-0.00;91.17;101653.31;5026637;28;20148;-66
2023/12/03 07:27:07;;;;;;;24.50;12.45;;;;;;;0.04;90.60;101647.59;5021357;28;20128;-67
2023/12/03 07:29:33;;;;;;;26.02;12.15;;;;;;;0.07;90.06;101640.09;5025303;28;20045;-65
2023/12/03 07:32:00;;;;;;;28.05;12.63;;;;;;;0.07;90.32;101640.97;5006583;28;20044;-66
2023/12/03 07:34:26;;;;;;;27.88;12.73;;;;;;;0.09;90.33;101644.47;5024991;28;20064;-67
2023/12/03 07:36:52;;;;;;;24.58;12.77;;;;;;;0.10;90.69;101652.97;5025744;28;20412;-66
2023/12/03 07:39:18;;;;;;;27.83;14.07;;;;;;;0.09;90.92;101651.19;5058189;28;20377;-66
2023/12/03 07:41:52;;;;;;;25.40;13.27;;;;;;;0.07;90.77;101658.78;5027715;28;20034;-66
2023/12/03 07:44:18;;;;;;;33.15;13.48;;;;;;;0.08;90.78;101654.56;5026011;28;20041;-66
2023/12/03 07:46:44;;;;;;;26.08;12.10;;;;;;;0.11;90.65;101655.56;5058962;28;20104;-65
2023/12/03 07:49:09;;;;;;;29.27;12.88;;;;;;;0.08;90.82;101652.88;5028521;28;20025;-66
2023/12/03 07:51:35;;;;;;;32.80;13.93;;;;;;;0.09;91.08;101656.28;5025662;28;20427;-66
2023/12/03 07:54:00;;;;;;;30.65;14.43;;;;;;;0.10;90.96;101655.50;5058105;28;20554;-68
2023/12/03 07:56:36;;;;;;;27.80;13.82;;;;;;;0.11;91.14;101663.19;5026052;28;20042;-66
2023/12/03 07:59:02;;;;;;;28.70;12.88;;;;;;;0.15;91.29;101661.66;5059518;28;20477;-69
2023/12/03 08:01:28;;;;;;;30.67;13.23;;;;;;;0.21;91.21;101666.16;5060308;28;20029;-67
2023/12/03 08:03:53;;;;;;;29.15;12.85;;;;;;;0.26;90.82;101646.94;5055149;28;20025;-67
2023/12/03 08:06:19;;;;;;;29.17;13.07;;;;;;;0.33;90.67;101657.44;5027588;28;20064;-67
2023/12/03 08:08:44;;;;;;;25.98;11.93;;;;;;;0.37;90.09;101648.28;5060597;28;20037;-67
2023/12/03 08:11:10;;;;;;;27.08;13.02;;;;;;;0.45;90.17;101660.56;5023312;28;20100;-66
2023/12/03 08:13:35;;;;;;;26.02;12.45;;;;;;;0.48;90.55;101664.91;5022292;28;20038;-67
2023/12/03 08:16:04;;;;;;;30.02;13.00;;;;;;;0.48;89.54;101648.00;5005087;28;20060;-67
2023/12/03 08:18:31;;;;;;;27.38;13.55;;;;;;;0.50;89.76;101656.56;5057172;28;20095;-67
2023/12/03 08:20:56;;;;;;;26.20;13.15;;;;;;;0.52;89.26;101647.34;5025192;28;20045;-66
2023/12/03 08:23:22;;;;;;;30.45;12.15;;;;;;;0.50;89.41;101641.28;5058708;28;20095;-67
2023/12/03 08:25:47;;;;;;;26.30;12.85;;;;;;;0.54;89.30;101647.41;5024871;28;20099;-67
2023/12/03 08:28:12;;;;;;;24.08;11.55;;;;;;;0.52;89.40;101656.63;5021935;28;20114;-66
2023/12/03 08:30:39;;;;;;;22.88;11.20;;;;;;;0.52;88.98;101647.34;5023479;28;20049;-67
2023/12/03 08:33:04;;;;;;;26.88;11.57;;;;;;;0.53;89.21;101656.69;5020412;28;20057;-67
2023/12/03 08:35:31;;;;;;;26.17;12.05;;;;;;;0.54;88.92;101652.47;5049473;28;20076;-66
2023/12/03 08:37:57;;;;;;;26.30;11.07;;;;;;;0.54;89.23;101650.81;5023850;28;20045;-66
2023/12/03 08:40:23;;;;;;;26.23;11.23;;;;;;;0.58;88.84;101654.38;5025461;28;20059;-67
2023/12/03 08:42:48;;;;;;;25.45;12.05;;;;;;;0.59;89.29;101656.97;5039426;28;20053;-67
2023/12/03 08:45:14;;;;;;;23.25;11.18;;;;;;;0.60;89.14;101657.84;5025188;28;20045;-67
2023/12/03 08:47:39;;;;;;;22.77;11.23;;;;;;;0.62;88.62;101659.66;5021247;28;20041;-66
2023/12/03 08:50:05;;;;;;;24.77;11.60;;;;;;;0.64;88.79;101665.72;5038237;28;20048;-66
2023/12/03 08:52:31;;;;;;;27.83;12.63;;;;;;;0.67;88.54;101662.44;5008034;28;20687;-66
2023/12/03 08:54:57;;;;;;;27.98;13.60;;;;;;;0.68;87.81;101652.31;5025964;28;20029;-67
2023/12/03 08:57:22;;;;;;;28.20;13.13;;;;;;;0.76;88.16;101660.31;5025627;28;20029;-66
2023/12/03 08:59:49;;;;;;;26.05;12.40;;;;;;;0.78;87.52;101651.06;5023056;28;20076;-66
2023/12/03 09:02:15;;;;;;;25.83;10.50;;;;;;;0.78;87.17;101653.59;5025066;28;20048;-66
2023/12/03 09:04:40;;;;;;;27.20;11.88;;;;;;;0.80;87.28;101648.56;5038272;28;20033;-67
2023/12/03 09:07:06;;;;;;;26.02;10.43;;;;;;;0.79;87.32;101655.34;5023293;28;20485;-66
2023/12/03 09:09:31;;;;;;;23.23;11.52;;;;;;;0.78;86.90;101658.69;5028289;28;20038;-66
2023/12/03 09:11:56;;;;;;;23.83;11.10;;;;;;;0.72;87.41;101664.38;5026393;28;20090;-66
2023/12/03 09:14:25;;;;;;;26.70;11.48;;;;;;;0.76;87.29;101661.97;5057342;28;20045;-66
2023/12/03 09:16:50;;;;;;;24.48;11.65;;;;;;;0.76;87.43;101664.50;5019755;28;20136;-67
2023/12/03 09:19:16;;;;;;;24.45;10.38;;;;;;;0.74;87.39;101665.31;5051566;28;20504;-66
2023/12/03 09:21:41;;;;;;;21.42;10.55;;;;;;;0.78;87.16;101662.91;5051833;28;20079;-67
2023/12/03 09:24:07;;;;;;;25.63;11.75;;;;;;;0.80;87.26;101658.72;5004808;28;20033;-66
2023/12/03 09:26:32;;;;;;;22.30;11.40;;;;;;;0.83;86.95;101647.03;5023750;28;20030;-67
2023/12/03 09:28:58;;;;;;;28.48;12.90;;;;;;;0.84;87.40;101658.97;5035057;28;20034;-66
2023/12/03 09:31:23;;;;;;;29.20;12.63;;;;;;;0.89;87.39;101652.38;5026302;28;20622;-66
2023/12/03 09:33:49;;;;;;;34.35;13.70;;;;;;;0.90;86.88;101643.97;5023402;28;20045;-67
2023/12/03 09:36:14;;;;;;;29.85;13.18;;;;;;;0.91;86.36;101644.84;5039297;28;20029;-67
2023/12/03 09:38:40;;;;;;;30.92;12.20;;;;;;;0.94;87.04;101653.50;5056648;28;20444;-67
2023/12/03 09:41:13;;;;;;;28.08;12.82;;;;;;;0.97;86.77;101652.75;5021016;28;20056;-67
2023/12/03 09:43:40;;;;;;;27.00;13.55;;;;;;;1.04;86.76;101652.19;5022263;28;20650;-67
2023/12/03 09:46:12;;;;;;;29.98;12.68;;;;;;;1.10;86.14;101645.69;5022026;28;20032;-68
2023/12/03 09:48:42;;;;;;;29.27;13.75;;;;;;;1.18;85.60;101641.81;5014462;28;20041;-68
2023/12/03 09:51:12;;;;;;;30.85;13.52;;;;;;;1.23;84.77;101629.28;5024899;28;20099;-68
2023/12/03 09:53:43;;;;;;;27.42;12.50;;;;;;;1.31;84.92;101643.22;5016344;28;20057;-68
2023/12/03 09:56:09;;;;;;;26.98;13.13;;;;;;;1.40;84.72;101635.09;5022332;28;20096;-68
2023/12/03 09:58:36;;;;;;;30.58;13.85;;;;;;;1.43;84.43;101637.75;5050974;28;20507;-68
2023/12/03 10:01:02;;;;;;;28.05;13.35;;;;;;;1.48;83.75;101621.00;5034393;28;20042;-69
2023/12/03 10:03:27;;;;;;;31.17;13.23;;;;;;;1.54;84.21;101639.94;5024910;28;20112;-68
2023/12/03 10:05:53;;;;;;;27.60;13.05;;;;;;;1.59;83.57;101619.78;5025792;28;20183;-68
2023/12/03 10:08:19;;;;;;;28.98;13.27;;;;;;;1.71;83.67;101638.13;5023052;28;20030;-68
2023/12/03 10:10:54;;;;;;;26.98;12.90;;;;;;;1.78;82.54;101612.03;5001498;28;20092;-69
2023/12/03 10:13:20;;;;;;;31.92;13.57;;;;;;;1.84;82.55;101617.38;5021055;28;20479;-69
2023/12/03 10:15:46;;;;;;;29.50;13.15;;;;;;;1.85;81.72;101603.84;5022535;28;20033;-68
2023/12/03 10:18:12;;;;;;;24.25;12.15;;;;;;;1.90;81.44;101576.84;5055594;28;20060;-69
2023/12/03 10:20:38;;;;;;;25.55;13.02;;;;;;;1.94;81.23;101578.72;5022547;28;20049;-69
2023/12/03 10:23:04;;;;;;;26.25;11.25;;;;;;;1.86;80.60;101575.00;5024801;28;20029;-69
2023/12/03 10:25:35;;;;;;;22.42;11.50;;;;;;;1.97;80.80;101575.41;5045540;28;20069;-69
2023/12/03 10:28:06;;;;;;;27.08;13.05;;;;;;;2.05;80.66;101566.38;5064342;28;20073;-68
2023/12/03 10:30:32;;;;;;;23.27;11.75;;;;;;;2.09;79.88;101560.59;5029945;28;20048;-67
2023/12/03 10:32:58;;;;;;;24.83;11.55;;;;;;;2.17;79.69;101544.78;5031048;28;20400;-68
2023/12/03 10:35:24;;;;;;;21.55;11.27;;;;;;;2.25;80.14;101552.72;5058486;28;20033;-66
2023/12/03 10:37:50;;;;;;;21.20;11.25;;;;;;;2.32;79.70;101549.56;5027846;28;20484;-66
2023/12/03 10:40:18;;;;;;;23.48;12.05;;;;;;;2.35;79.28;101536.94;5027137;28;20033;-66
2023/12/03 10:42:44;;;;;;;21.75;12.07;;;;;;;2.50;79.30;101539.16;5030992;28;20100;-66
2023/12/03 10:45:10;;;;;;;27.63;13.60;;;;;;;2.40;78.45;101512.44;5025974;28;20041;-66
2023/12/03 10:47:37;;;;;;;26.20;12.00;;;;;;;2.49;77.70;101514.50;5026892;28;20040;-66
2023/12/03 10:50:06;;;;;;;25.40;11.85;;;;;;;2.56;77.19;101508.78;5026156;28;20408;-66
2023/12/03 10:52:33;;;;;;;25.65;11.80;;;;;;;2.57;76.67;101485.88;5044817;28;20532;-67
2023/12/03 10:54:59;;;;;;;22.50;11.82;;;;;;;2.61;77.54;101484.28;5026390;28;20033;-66
2023/12/03 10:57:52;;;;;;;24.65;12.60;;;;;;;2.61;76.84;101490.25;5058953;28;20030;-67
2023/12/03 11:00:21;;;;;;;23.05;11.93;;;;;;;2.53;76.80;101475.50;5019309;28;20045;-68
2023/12/03 11:02:54;;;;;;;23.50;12.00;;;;;;;2.47;77.22;101483.81;5025807;28;20034;-67
2023/12/03 11:05:32;;;;;;;22.58;11.23;;;;;;;2.49;77.72;101501.72;5057970;28;20042;-66
2023/12/03 11:08:01;;;;;;;25.60;12.68;;;;;;;2.48;77.40;101489.78;5023317;28;20029;-68